sensor_id;sensor_type;location;lat;lon;timestamp;temperature;humidity
59007;DHT22;44792;52.760;6.726;2023-08-01T00:00:25;17.20;99.90
59007;DHT22;44792;52.760;6.726;2023-08-01T00:02:51;17.10;99.90
59007;DHT22;44792;52.760;6.726;2023-08-01T00:05:16;17.10;99.90
59007;DHT22;44792;52.760;6.726;2023-08-01T00:07:42;17.20;99.90
59007;DHT22;44792;52.760;6.726;2023-08-01T00:10:08;17.10;99.90
59007;DHT22;44792;52.760;6.726;2023-08-01T00:12:34;17.10;99.90
59007;DHT22;44792;52.760;6.726;2023-08-01T00:15:00;17.10;99.90
59007;DHT22;44792;52.760;6.726;2023-08-01T00:17:25;17.10;99.90
59007;DHT22;44792;52.760;6.726;2023-08-01T00:19:51;17.10;99.90
59007;DHT22;44792;52.760;6.726;2023-08-01T00:22:17;17.10;99.90
59007;DHT22;44792;52.760;6.726;2023-08-01T00:24:42;17.10;99.90
59007;DHT22;44792;52.760;6.726;2023-08-01T00:27:08;17.10;99.90
59007;DHT22;44792;52.760;6.726;2023-08-01T00:29:36;17.10;99.90
59007;DHT22;44792;52.760;6.726;2023-08-01T00:32:02;17.10;99.90
59007;DHT22;44792;52.760;6.726;2023-08-01T00:34:28;17.10;99.90
59007;DHT22;44792;52.760;6.726;2023-08-01T00:36:53;17.00;99.90
59007;DHT22;44792;52.760;6.726;2023-08-01T00:39:19;17.10;99.90
59007;DHT22;44792;52.760;6.726;2023-08-01T00:41:44;17.10;99.90
59007;DHT22;44792;52.760;6.726;2023-08-01T00:44:10;17.10;99.90
59007;DHT22;44792;52.760;6.726;2023-08-01T00:46:36;17.10;99.90
59007;DHT22;44792;52.760;6.726;2023-08-01T00:49:03;17.00;99.90
59007;DHT22;44792;52.760;6.726;2023-08-01T00:51:30;17.10;99.90
59007;DHT22;44792;52.760;6.726;2023-08-01T00:53:57;17.00;99.90
59007;DHT22;44792;52.760;6.726;2023-08-01T00:56:24;17.00;99.90
59007;DHT22;44792;52.760;6.726;2023-08-01T00:58:49;17.00;99.90
59007;DHT22;44792;52.760;6.726;2023-08-01T01:01:15;17.00;99.90
59007;DHT22;44792;52.760;6.726;2023-08-01T01:03:41;17.00;99.90
59007;DHT22;44792;52.760;6.726;2023-08-01T01:08:44;17.00;99.90
59007;DHT22;44792;52.760;6.726;2023-08-01T01:11:11;17.00;99.90
59007;DHT22;44792;52.760;6.726;2023-08-01T01:13:36;17.00;99.90
59007;DHT22;44792;52.760;6.726;2023-08-01T01:16:02;17.00;99.90
59007;DHT22;44792;52.760;6.726;2023-08-01T01:18:28;17.00;99.90
59007;DHT22;44792;52.760;6.726;2023-08-01T01:20:54;17.00;99.90
59007;DHT22;44792;52.760;6.726;2023-08-01T01:23:21;17.00;99.90
59007;DHT22;44792;52.760;6.726;2023-08-01T01:25:51;17.00;99.90
59007;DHT22;44792;52.760;6.726;2023-08-01T01:28:19;17.00;99.90
59007;DHT22;44792;52.760;6.726;2023-08-01T01:30:46;17.00;99.90
59007;DHT22;44792;52.760;6.726;2023-08-01T01:33:13;16.90;99.90
59007;DHT22;44792;52.760;6.726;2023-08-01T01:35:40;16.90;99.90
59007;DHT22;44792;52.760;6.726;2023-08-01T01:38:06;16.90;99.90
59007;DHT22;44792;52.760;6.726;2023-08-01T01:40:32;16.90;99.90
59007;DHT22;44792;52.760;6.726;2023-08-01T01:42:59;16.90;99.90
59007;DHT22;44792;52.760;6.726;2023-08-01T01:45:25;16.90;99.90
59007;DHT22;44792;52.760;6.726;2023-08-01T01:47:51;16.90;99.90
59007;DHT22;44792;52.760;6.726;2023-08-01T01:50:17;16.90;99.90
59007;DHT22;44792;52.760;6.726;2023-08-01T01:52:44;16.90;99.90
59007;DHT22;44792;52.760;6.726;2023-08-01T01:55:09;16.90;99.90
59007;DHT22;44792;52.760;6.726;2023-08-01T01:57:35;16.90;99.90
59007;DHT22;44792;52.760;6.726;2023-08-01T02:00:05;16.90;99.90
59007;DHT22;44792;52.760;6.726;2023-08-01T02:02:36;16.90;99.90
59007;DHT22;44792;52.760;6.726;2023-08-01T02:05:02;16.90;99.90
59007;DHT22;44792;52.760;6.726;2023-08-01T02:07:29;16.90;99.90
59007;DHT22;44792;52.760;6.726;2023-08-01T02:09:55;16.80;99.90
59007;DHT22;44792;52.760;6.726;2023-08-01T02:12:20;16.80;99.90
59007;DHT22;44792;52.760;6.726;2023-08-01T02:14:46;16.80;99.90
59007;DHT22;44792;52.760;6.726;2023-08-01T02:17:12;16.80;99.90
59007;DHT22;44792;52.760;6.726;2023-08-01T02:19:38;16.80;99.90
59007;DHT22;44792;52.760;6.726;2023-08-01T02:22:04;16.80;99.90
59007;DHT22;44792;52.760;6.726;2023-08-01T02:24:30;16.80;99.90
59007;DHT22;44792;52.760;6.726;2023-08-01T02:26:55;16.70;99.90
59007;DHT22;44792;52.760;6.726;2023-08-01T02:29:21;16.70;99.90
59007;DHT22;44792;52.760;6.726;2023-08-01T02:31:47;16.70;99.90
59007;DHT22;44792;52.760;6.726;2023-08-01T02:34:12;16.70;99.90
59007;DHT22;44792;52.760;6.726;2023-08-01T02:36:38;16.70;99.90
59007;DHT22;44792;52.760;6.726;2023-08-01T02:39:06;16.70;99.90
59007;DHT22;44792;52.760;6.726;2023-08-01T02:41:32;16.70;99.90
59007;DHT22;44792;52.760;6.726;2023-08-01T02:43:58;16.70;99.90
59007;DHT22;44792;52.760;6.726;2023-08-01T02:46:23;16.70;99.90
59007;DHT22;44792;52.760;6.726;2023-08-01T02:48:49;16.70;99.90
59007;DHT22;44792;52.760;6.726;2023-08-01T02:51:15;16.70;99.90
59007;DHT22;44792;52.760;6.726;2023-08-01T02:53:41;16.70;99.90
59007;DHT22;44792;52.760;6.726;2023-08-01T02:56:07;16.70;99.90
59007;DHT22;44792;52.760;6.726;2023-08-01T02:58:35;16.70;99.90
59007;DHT22;44792;52.760;6.726;2023-08-01T03:01:05;16.60;99.90
59007;DHT22;44792;52.760;6.726;2023-08-01T03:03:32;16.60;99.90
59007;DHT22;44792;52.760;6.726;2023-08-01T03:05:59;16.60;99.90
59007;DHT22;44792;52.760;6.726;2023-08-01T03:08:25;16.50;99.90
59007;DHT22;44792;52.760;6.726;2023-08-01T03:10:51;16.50;99.90
59007;DHT22;44792;52.760;6.726;2023-08-01T03:13:16;16.50;99.90
59007;DHT22;44792;52.760;6.726;2023-08-01T03:15:42;16.50;99.90
59007;DHT22;44792;52.760;6.726;2023-08-01T03:18:07;16.50;99.90
59007;DHT22;44792;52.760;6.726;2023-08-01T03:20:33;16.50;99.90
59007;DHT22;44792;52.760;6.726;2023-08-01T03:22:59;16.50;99.90
59007;DHT22;44792;52.760;6.726;2023-08-01T03:25:25;16.50;99.90
59007;DHT22;44792;52.760;6.726;2023-08-01T03:27:50;16.40;99.90
59007;DHT22;44792;52.760;6.726;2023-08-01T03:30:16;16.40;99.90
59007;DHT22;44792;52.760;6.726;2023-08-01T03:32:42;16.50;99.90
59007;DHT22;44792;52.760;6.726;2023-08-01T03:35:08;16.40;99.90
59007;DHT22;44792;52.760;6.726;2023-08-01T03:37:33;16.40;99.90
59007;DHT22;44792;52.760;6.726;2023-08-01T03:39:59;16.40;99.90
59007;DHT22;44792;52.760;6.726;2023-08-01T03:42:25;16.30;99.90
59007;DHT22;44792;52.760;6.726;2023-08-01T03:44:50;16.30;99.90
59007;DHT22;44792;52.760;6.726;2023-08-01T03:47:16;16.30;99.90
59007;DHT22;44792;52.760;6.726;2023-08-01T03:49:42;16.30;99.90
59007;DHT22;44792;52.760;6.726;2023-08-01T03:52:08;16.30;99.90
59007;DHT22;44792;52.760;6.726;2023-08-01T03:54:33;16.30;99.90
59007;DHT22;44792;52.760;6.726;2023-08-01T03:56:59;16.40;99.90
59007;DHT22;44792;52.760;6.726;2023-08-01T03:59:25;16.40;99.90
59007;DHT22;44792;52.760;6.726;2023-08-01T04:01:51;16.40;99.90
59007;DHT22;44792;52.760;6.726;2023-08-01T04:04:17;16.30;99.90
59007;DHT22;44792;52.760;6.726;2023-08-01T04:06:43;16.30;99.90
59007;DHT22;44792;52.760;6.726;2023-08-01T04:09:08;16.30;99.90
59007;DHT22;44792;52.760;6.726;2023-08-01T04:11:34;16.30;99.90
59007;DHT22;44792;52.760;6.726;2023-08-01T04:14:00;16.30;99.90
59007;DHT22;44792;52.760;6.726;2023-08-01T04:16:26;16.30;99.90
59007;DHT22;44792;52.760;6.726;2023-08-01T04:18:51;16.20;99.90
59007;DHT22;44792;52.760;6.726;2023-08-01T04:21:18;16.20;99.90
59007;DHT22;44792;52.760;6.726;2023-08-01T04:23:44;16.10;99.90
59007;DHT22;44792;52.760;6.726;2023-08-01T04:26:09;16.10;99.90
59007;DHT22;44792;52.760;6.726;2023-08-01T04:28:35;16.10;99.90
59007;DHT22;44792;52.760;6.726;2023-08-01T04:31:01;16.10;99.90
59007;DHT22;44792;52.760;6.726;2023-08-01T04:33:27;16.10;99.90
59007;DHT22;44792;52.760;6.726;2023-08-01T04:35:53;16.00;99.90
59007;DHT22;44792;52.760;6.726;2023-08-01T04:38:18;16.00;99.90
59007;DHT22;44792;52.760;6.726;2023-08-01T04:40:44;16.00;99.90
59007;DHT22;44792;52.760;6.726;2023-08-01T04:43:13;16.00;99.90
59007;DHT22;44792;52.760;6.726;2023-08-01T04:45:38;16.00;99.90
59007;DHT22;44792;52.760;6.726;2023-08-01T04:48:04;16.00;99.90
59007;DHT22;44792;52.760;6.726;2023-08-01T04:50:30;15.90;99.90
59007;DHT22;44792;52.760;6.726;2023-08-01T04:52:56;16.00;99.90
59007;DHT22;44792;52.760;6.726;2023-08-01T04:55:22;16.00;99.90
59007;DHT22;44792;52.760;6.726;2023-08-01T04:57:47;15.90;99.90
59007;DHT22;44792;52.760;6.726;2023-08-01T05:00:13;16.00;99.90
59007;DHT22;44792;52.760;6.726;2023-08-01T05:02:39;15.90;99.90
59007;DHT22;44792;52.760;6.726;2023-08-01T05:05:05;15.90;99.90
59007;DHT22;44792;52.760;6.726;2023-08-01T05:07:31;15.90;99.90
59007;DHT22;44792;52.760;6.726;2023-08-01T05:09:57;16.00;99.90
59007;DHT22;44792;52.760;6.726;2023-08-01T05:12:22;16.00;99.90
59007;DHT22;44792;52.760;6.726;2023-08-01T05:14:48;16.00;99.90
59007;DHT22;44792;52.760;6.726;2023-08-01T05:17:14;16.00;99.90
59007;DHT22;44792;52.760;6.726;2023-08-01T05:19:39;16.00;99.90
59007;DHT22;44792;52.760;6.726;2023-08-01T05:22:05;16.10;99.90
59007;DHT22;44792;52.760;6.726;2023-08-01T05:24:31;16.10;99.90
59007;DHT22;44792;52.760;6.726;2023-08-01T05:26:57;16.10;99.90
59007;DHT22;44792;52.760;6.726;2023-08-01T05:29:22;16.10;99.90
59007;DHT22;44792;52.760;6.726;2023-08-01T05:31:49;16.10;99.90
59007;DHT22;44792;52.760;6.726;2023-08-01T05:34:15;16.10;99.90
59007;DHT22;44792;52.760;6.726;2023-08-01T05:36:40;16.10;99.90
59007;DHT22;44792;52.760;6.726;2023-08-01T05:39:07;16.20;99.90
59007;DHT22;44792;52.760;6.726;2023-08-01T05:41:33;16.20;99.90
59007;DHT22;44792;52.760;6.726;2023-08-01T05:43:58;16.20;99.90
59007;DHT22;44792;52.760;6.726;2023-08-01T05:46:24;16.10;99.90
59007;DHT22;44792;52.760;6.726;2023-08-01T05:48:50;16.20;99.90
59007;DHT22;44792;52.760;6.726;2023-08-01T05:51:16;16.10;99.90
59007;DHT22;44792;52.760;6.726;2023-08-01T05:53:41;16.10;99.90
59007;DHT22;44792;52.760;6.726;2023-08-01T05:56:07;16.20;99.90
59007;DHT22;44792;52.760;6.726;2023-08-01T05:58:33;16.20;99.90
59007;DHT22;44792;52.760;6.726;2023-08-01T06:00:58;16.20;99.90
59007;DHT22;44792;52.760;6.726;2023-08-01T06:03:24;16.10;99.90
59007;DHT22;44792;52.760;6.726;2023-08-01T06:05:50;16.20;99.90
59007;DHT22;44792;52.760;6.726;2023-08-01T06:08:15;16.10;99.90
59007;DHT22;44792;52.760;6.726;2023-08-01T06:10:42;16.10;99.90
59007;DHT22;44792;52.760;6.726;2023-08-01T06:13:08;16.10;99.90
59007;DHT22;44792;52.760;6.726;2023-08-01T06:15:34;16.10;99.90
59007;DHT22;44792;52.760;6.726;2023-08-01T06:17:59;16.10;99.90
59007;DHT22;44792;52.760;6.726;2023-08-01T06:20:26;16.10;99.90
59007;DHT22;44792;52.760;6.726;2023-08-01T06:22:51;16.10;99.90
59007;DHT22;44792;52.760;6.726;2023-08-01T06:25:17;16.10;99.90
59007;DHT22;44792;52.760;6.726;2023-08-01T06:27:43;16.10;99.90
59007;DHT22;44792;52.760;6.726;2023-08-01T06:30:09;16.10;99.90
59007;DHT22;44792;52.760;6.726;2023-08-01T06:32:35;16.10;99.90
59007;DHT22;44792;52.760;6.726;2023-08-01T06:35:01;16.10;99.90
59007;DHT22;44792;52.760;6.726;2023-08-01T06:37:26;16.10;99.90
59007;DHT22;44792;52.760;6.726;2023-08-01T06:39:53;16.20;99.90
59007;DHT22;44792;52.760;6.726;2023-08-01T06:42:19;16.20;99.90
59007;DHT22;44792;52.760;6.726;2023-08-01T06:44:45;16.30;99.90
59007;DHT22;44792;52.760;6.726;2023-08-01T06:47:11;16.40;99.90
59007;DHT22;44792;52.760;6.726;2023-08-01T06:49:37;16.50;99.90
59007;DHT22;44792;52.760;6.726;2023-08-01T06:52:03;16.60;99.90
59007;DHT22;44792;52.760;6.726;2023-08-01T06:54:28;16.60;99.90
59007;DHT22;44792;52.760;6.726;2023-08-01T06:56:54;16.60;99.90
59007;DHT22;44792;52.760;6.726;2023-08-01T06:59:20;16.70;99.90
59007;DHT22;44792;52.760;6.726;2023-08-01T07:01:45;16.70;99.90
59007;DHT22;44792;52.760;6.726;2023-08-01T07:04:11;16.80;99.90
59007;DHT22;44792;52.760;6.726;2023-08-01T07:06:37;16.80;99.90
59007;DHT22;44792;52.760;6.726;2023-08-01T07:09:03;16.90;99.90
59007;DHT22;44792;52.760;6.726;2023-08-01T07:11:29;16.90;99.90
59007;DHT22;44792;52.760;6.726;2023-08-01T07:13:54;16.90;99.90
59007;DHT22;44792;52.760;6.726;2023-08-01T07:16:20;16.90;99.90
59007;DHT22;44792;52.760;6.726;2023-08-01T07:18:46;16.90;99.90
59007;DHT22;44792;52.760;6.726;2023-08-01T07:21:14;16.90;99.90
59007;DHT22;44792;52.760;6.726;2023-08-01T07:23:40;16.90;99.90
59007;DHT22;44792;52.760;6.726;2023-08-01T07:26:06;16.90;99.90
59007;DHT22;44792;52.760;6.726;2023-08-01T07:28:32;17.00;99.90
59007;DHT22;44792;52.760;6.726;2023-08-01T07:31:03;17.00;99.90
59007;DHT22;44792;52.760;6.726;2023-08-01T07:33:30;17.10;99.90
59007;DHT22;44792;52.760;6.726;2023-08-01T07:35:56;17.10;99.90
59007;DHT22;44792;52.760;6.726;2023-08-01T07:38:22;17.20;99.90
59007;DHT22;44792;52.760;6.726;2023-08-01T07:40:47;17.30;99.90
59007;DHT22;44792;52.760;6.726;2023-08-01T07:43:13;17.30;99.90
59007;DHT22;44792;52.760;6.726;2023-08-01T07:45:39;17.30;99.90
59007;DHT22;44792;52.760;6.726;2023-08-01T07:48:05;17.30;99.90
59007;DHT22;44792;52.760;6.726;2023-08-01T07:50:31;17.40;99.90
59007;DHT22;44792;52.760;6.726;2023-08-01T07:52:56;17.30;99.90
59007;DHT22;44792;52.760;6.726;2023-08-01T07:55:23;17.20;99.90
59007;DHT22;44792;52.760;6.726;2023-08-01T07:57:48;17.20;99.90
59007;DHT22;44792;52.760;6.726;2023-08-01T08:00:14;17.20;99.90
59007;DHT22;44792;52.760;6.726;2023-08-01T08:02:44;17.10;99.90
59007;DHT22;44792;52.760;6.726;2023-08-01T08:05:11;17.10;99.90
59007;DHT22;44792;52.760;6.726;2023-08-01T08:07:37;17.10;99.90
59007;DHT22;44792;52.760;6.726;2023-08-01T08:10:03;17.10;99.90
59007;DHT22;44792;52.760;6.726;2023-08-01T08:12:29;17.10;99.90
59007;DHT22;44792;52.760;6.726;2023-08-01T08:14:55;17.10;99.90
59007;DHT22;44792;52.760;6.726;2023-08-01T08:17:21;17.10;99.90
59007;DHT22;44792;52.760;6.726;2023-08-01T08:19:46;17.10;99.90
59007;DHT22;44792;52.760;6.726;2023-08-01T08:22:12;17.10;99.90
59007;DHT22;44792;52.760;6.726;2023-08-01T08:24:38;17.10;99.90
59007;DHT22;44792;52.760;6.726;2023-08-01T08:27:04;17.00;99.90
59007;DHT22;44792;52.760;6.726;2023-08-01T08:29:31;16.90;99.90
59007;DHT22;44792;52.760;6.726;2023-08-01T08:31:57;17.00;99.90
59007;DHT22;44792;52.760;6.726;2023-08-01T08:34:22;16.90;99.90
59007;DHT22;44792;52.760;6.726;2023-08-01T08:36:48;16.90;99.90
59007;DHT22;44792;52.760;6.726;2023-08-01T08:39:16;16.90;99.90
59007;DHT22;44792;52.760;6.726;2023-08-01T08:41:46;16.90;99.90
59007;DHT22;44792;52.760;6.726;2023-08-01T08:44:16;16.90;99.90
59007;DHT22;44792;52.760;6.726;2023-08-01T08:46:44;16.90;99.90
59007;DHT22;44792;52.760;6.726;2023-08-01T08:49:10;16.90;99.90
59007;DHT22;44792;52.760;6.726;2023-08-01T08:51:37;16.90;99.90
59007;DHT22;44792;52.760;6.726;2023-08-01T08:54:05;16.90;99.90
59007;DHT22;44792;52.760;6.726;2023-08-01T08:56:31;16.90;99.90
59007;DHT22;44792;52.760;6.726;2023-08-01T08:58:57;16.90;99.90
59007;DHT22;44792;52.760;6.726;2023-08-01T09:01:24;17.00;99.90
59007;DHT22;44792;52.760;6.726;2023-08-01T09:03:50;17.00;99.90
59007;DHT22;44792;52.760;6.726;2023-08-01T09:06:17;17.00;99.90
59007;DHT22;44792;52.760;6.726;2023-08-01T09:08:51;17.10;99.90
59007;DHT22;44792;52.760;6.726;2023-08-01T09:11:17;17.10;99.90
59007;DHT22;44792;52.760;6.726;2023-08-01T09:13:43;17.10;99.90
59007;DHT22;44792;52.760;6.726;2023-08-01T09:16:10;17.10;99.90
59007;DHT22;44792;52.760;6.726;2023-08-01T09:18:50;17.20;99.90
59007;DHT22;44792;52.760;6.726;2023-08-01T09:21:21;17.20;99.90
59007;DHT22;44792;52.760;6.726;2023-08-01T09:23:47;17.20;99.90
59007;DHT22;44792;52.760;6.726;2023-08-01T09:26:16;17.20;99.90
59007;DHT22;44792;52.760;6.726;2023-08-01T09:28:42;17.20;99.90
59007;DHT22;44792;52.760;6.726;2023-08-01T09:31:10;17.10;99.90
59007;DHT22;44792;52.760;6.726;2023-08-01T09:33:42;17.10;99.90
59007;DHT22;44792;52.760;6.726;2023-08-01T09:36:09;17.10;99.90
59007;DHT22;44792;52.760;6.726;2023-08-01T09:38:36;17.10;99.90
59007;DHT22;44792;52.760;6.726;2023-08-01T09:41:03;17.10;99.90
59007;DHT22;44792;52.760;6.726;2023-08-01T09:43:36;17.10;99.90
59007;DHT22;44792;52.760;6.726;2023-08-01T09:46:02;16.90;99.90
59007;DHT22;44792;52.760;6.726;2023-08-01T09:48:29;16.90;99.90
59007;DHT22;44792;52.760;6.726;2023-08-01T09:51:12;16.90;99.90
59007;DHT22;44792;52.760;6.726;2023-08-01T09:53:55;16.80;99.90
59007;DHT22;44792;52.760;6.726;2023-08-01T09:56:26;16.80;99.90
59007;DHT22;44792;52.760;6.726;2023-08-01T09:58:54;16.80;99.90
59007;DHT22;44792;52.760;6.726;2023-08-01T10:01:24;16.70;99.90
59007;DHT22;44792;52.760;6.726;2023-08-01T10:03:52;16.80;99.90
59007;DHT22;44792;52.760;6.726;2023-08-01T10:06:21;16.80;99.90
59007;DHT22;44792;52.760;6.726;2023-08-01T10:08:48;16.80;99.90
59007;DHT22;44792;52.760;6.726;2023-08-01T10:11:16;16.90;99.90
59007;DHT22;44792;52.760;6.726;2023-08-01T10:13:43;16.90;99.90
59007;DHT22;44792;52.760;6.726;2023-08-01T10:16:09;17.00;99.90
59007;DHT22;44792;52.760;6.726;2023-08-01T10:18:36;17.00;99.90
59007;DHT22;44792;52.760;6.726;2023-08-01T10:21:15;17.10;99.90
59007;DHT22;44792;52.760;6.726;2023-08-01T10:23:43;17.20;99.90
59007;DHT22;44792;52.760;6.726;2023-08-01T10:26:10;17.20;99.90
59007;DHT22;44792;52.760;6.726;2023-08-01T10:28:38;17.20;99.90
59007;DHT22;44792;52.760;6.726;2023-08-01T10:31:15;17.30;99.90
59007;DHT22;44792;52.760;6.726;2023-08-01T10:33:43;17.30;99.90
59007;DHT22;44792;52.760;6.726;2023-08-01T10:36:16;17.50;99.90
59007;DHT22;44792;52.760;6.726;2023-08-01T10:38:53;17.50;99.90
59007;DHT22;44792;52.760;6.726;2023-08-01T10:41:20;17.50;99.90
59007;DHT22;44792;52.760;6.726;2023-08-01T10:43:45;17.50;99.90
59007;DHT22;44792;52.760;6.726;2023-08-01T10:46:11;17.50;99.90
59007;DHT22;44792;52.760;6.726;2023-08-01T10:48:57;17.50;99.90
59007;DHT22;44792;52.760;6.726;2023-08-01T10:51:23;17.50;99.90
59007;DHT22;44792;52.760;6.726;2023-08-01T10:53:48;17.60;99.90
59007;DHT22;44792;52.760;6.726;2023-08-01T10:56:20;17.70;99.90
59007;DHT22;44792;52.760;6.726;2023-08-01T10:58:47;17.80;99.90
59007;DHT22;44792;52.760;6.726;2023-08-01T11:01:13;17.90;99.90
59007;DHT22;44792;52.760;6.726;2023-08-01T11:03:39;17.90;99.90
59007;DHT22;44792;52.760;6.726;2023-08-01T11:06:05;17.90;99.90
59007;DHT22;44792;52.760;6.726;2023-08-01T11:08:35;17.90;99.90
59007;DHT22;44792;52.760;6.726;2023-08-01T11:11:01;17.90;99.90
59007;DHT22;44792;52.760;6.726;2023-08-01T11:13:27;17.80;99.90
59007;DHT22;44792;52.760;6.726;2023-08-01T11:15:52;17.70;99.90
59007;DHT22;44792;52.760;6.726;2023-08-01T11:18:21;17.60;99.90
59007;DHT22;44792;52.760;6.726;2023-08-01T11:20:47;17.60;99.90
59007;DHT22;44792;52.760;6.726;2023-08-01T11:23:13;17.60;99.90
59007;DHT22;44792;52.760;6.726;2023-08-01T11:25:43;17.50;99.90
59007;DHT22;44792;52.760;6.726;2023-08-01T11:28:15;17.40;99.90
59007;DHT22;44792;52.760;6.726;2023-08-01T11:30:41;17.40;99.90
59007;DHT22;44792;52.760;6.726;2023-08-01T11:33:24;17.40;99.90
59007;DHT22;44792;52.760;6.726;2023-08-01T11:35:54;17.40;99.90
59007;DHT22;44792;52.760;6.726;2023-08-01T11:38:26;17.50;99.90
59007;DHT22;44792;52.760;6.726;2023-08-01T11:40:56;17.60;99.90
59007;DHT22;44792;52.760;6.726;2023-08-01T11:43:22;17.60;99.90
59007;DHT22;44792;52.760;6.726;2023-08-01T11:45:52;17.70;99.90
59007;DHT22;44792;52.760;6.726;2023-08-01T11:48:21;17.80;99.90
59007;DHT22;44792;52.760;6.726;2023-08-01T11:50:46;17.80;99.90
59007;DHT22;44792;52.760;6.726;2023-08-01T11:53:22;17.80;99.90
59007;DHT22;44792;52.760;6.726;2023-08-01T11:55:49;17.80;99.90
59007;DHT22;44792;52.760;6.726;2023-08-01T11:58:15;17.70;99.90
59007;DHT22;44792;52.760;6.726;2023-08-01T12:00:40;17.80;99.90
59007;DHT22;44792;52.760;6.726;2023-08-01T12:03:08;17.80;99.90
59007;DHT22;44792;52.760;6.726;2023-08-01T12:05:39;17.90;99.90
59007;DHT22;44792;52.760;6.726;2023-08-01T12:08:13;18.00;99.90
59007;DHT22;44792;52.760;6.726;2023-08-01T12:10:41;18.20;99.90
59007;DHT22;44792;52.760;6.726;2023-08-01T14:10:44;19.30;99.90
59007;DHT22;44792;52.760;6.726;2023-08-01T14:13:10;19.20;99.90
59007;DHT22;44792;52.760;6.726;2023-08-01T14:15:35;19.20;99.90
59007;DHT22;44792;52.760;6.726;2023-08-01T14:18:01;19.10;99.90
59007;DHT22;44792;52.760;6.726;2023-08-01T14:20:27;19.10;99.90
59007;DHT22;44792;52.760;6.726;2023-08-01T14:22:52;19.10;99.90
59007;DHT22;44792;52.760;6.726;2023-08-01T14:25:18;19.10;99.90
59007;DHT22;44792;52.760;6.726;2023-08-01T14:27:44;19.10;99.90
59007;DHT22;44792;52.760;6.726;2023-08-01T14:30:09;19.20;99.90
59007;DHT22;44792;52.760;6.726;2023-08-01T14:32:37;19.20;99.90
59007;DHT22;44792;52.760;6.726;2023-08-01T14:35:03;19.20;99.90
59007;DHT22;44792;52.760;6.726;2023-08-01T14:37:29;19.20;99.90
59007;DHT22;44792;52.760;6.726;2023-08-01T14:39:55;19.30;99.90
59007;DHT22;44792;52.760;6.726;2023-08-01T14:42:21;19.40;99.90
59007;DHT22;44792;52.760;6.726;2023-08-01T14:44:54;19.50;99.90
59007;DHT22;44792;52.760;6.726;2023-08-01T14:47:20;19.50;99.90
59007;DHT22;44792;52.760;6.726;2023-08-01T14:49:46;19.50;99.90
59007;DHT22;44792;52.760;6.726;2023-08-01T14:52:12;19.40;99.90
59007;DHT22;44792;52.760;6.726;2023-08-01T14:54:37;19.40;99.90
59007;DHT22;44792;52.760;6.726;2023-08-01T14:57:04;19.40;99.90
59007;DHT22;44792;52.760;6.726;2023-08-01T14:59:30;19.40;99.90
59007;DHT22;44792;52.760;6.726;2023-08-01T15:01:56;19.40;99.90
59007;DHT22;44792;52.760;6.726;2023-08-01T15:04:22;19.30;99.90
59007;DHT22;44792;52.760;6.726;2023-08-01T15:06:48;19.30;99.90
59007;DHT22;44792;52.760;6.726;2023-08-01T15:09:13;19.30;99.90
59007;DHT22;44792;52.760;6.726;2023-08-01T15:11:39;19.30;99.90
59007;DHT22;44792;52.760;6.726;2023-08-01T15:14:05;19.30;99.90
59007;DHT22;44792;52.760;6.726;2023-08-01T15:16:30;19.30;99.90
59007;DHT22;44792;52.760;6.726;2023-08-01T15:18:56;19.30;99.90
59007;DHT22;44792;52.760;6.726;2023-08-01T15:21:22;19.30;99.90
59007;DHT22;44792;52.760;6.726;2023-08-01T15:23:52;19.30;99.90
59007;DHT22;44792;52.760;6.726;2023-08-01T15:26:17;19.30;99.90
59007;DHT22;44792;52.760;6.726;2023-08-01T15:28:43;19.30;99.90
59007;DHT22;44792;52.760;6.726;2023-08-01T15:31:09;19.30;99.90
59007;DHT22;44792;52.760;6.726;2023-08-01T15:33:37;19.30;99.90
59007;DHT22;44792;52.760;6.726;2023-08-01T15:36:04;19.30;99.90
59007;DHT22;44792;52.760;6.726;2023-08-01T15:38:31;19.30;99.90
59007;DHT22;44792;52.760;6.726;2023-08-01T15:40:57;19.40;99.90
59007;DHT22;44792;52.760;6.726;2023-08-01T15:43:24;19.30;99.90
59007;DHT22;44792;52.760;6.726;2023-08-01T15:45:51;19.30;99.90
59007;DHT22;44792;52.760;6.726;2023-08-01T15:48:16;19.20;99.90
59007;DHT22;44792;52.760;6.726;2023-08-01T15:50:42;19.20;99.90
59007;DHT22;44792;52.760;6.726;2023-08-01T15:53:08;19.00;99.90
59007;DHT22;44792;52.760;6.726;2023-08-01T15:55:33;18.90;99.90
59007;DHT22;44792;52.760;6.726;2023-08-01T15:57:59;18.80;99.90
59007;DHT22;44792;52.760;6.726;2023-08-01T16:00:25;18.60;99.90
59007;DHT22;44792;52.760;6.726;2023-08-01T16:02:51;18.50;99.90
59007;DHT22;44792;52.760;6.726;2023-08-01T16:05:16;18.40;99.90
59007;DHT22;44792;52.760;6.726;2023-08-01T16:07:42;18.40;99.90
59007;DHT22;44792;52.760;6.726;2023-08-01T16:10:08;18.30;99.90
59007;DHT22;44792;52.760;6.726;2023-08-01T16:12:33;18.30;99.90
59007;DHT22;44792;52.760;6.726;2023-08-01T16:14:59;18.30;99.90
59007;DHT22;44792;52.760;6.726;2023-08-01T16:17:25;18.30;99.90
59007;DHT22;44792;52.760;6.726;2023-08-01T16:19:50;18.40;99.90
59007;DHT22;44792;52.760;6.726;2023-08-01T16:22:16;18.40;99.90
59007;DHT22;44792;52.760;6.726;2023-08-01T16:24:42;18.40;99.90
59007;DHT22;44792;52.760;6.726;2023-08-01T16:27:08;18.30;99.90
59007;DHT22;44792;52.760;6.726;2023-08-01T16:29:33;18.20;99.90
59007;DHT22;44792;52.760;6.726;2023-08-01T16:31:59;18.10;99.90
59007;DHT22;44792;52.760;6.726;2023-08-01T16:34:26;18.10;99.90
59007;DHT22;44792;52.760;6.726;2023-08-01T16:36:52;18.00;99.90
59007;DHT22;44792;52.760;6.726;2023-08-01T16:39:17;18.10;99.90
59007;DHT22;44792;52.760;6.726;2023-08-01T16:41:43;18.00;99.90
59007;DHT22;44792;52.760;6.726;2023-08-01T16:44:09;17.90;99.90
59007;DHT22;44792;52.760;6.726;2023-08-01T16:46:35;17.90;99.90
59007;DHT22;44792;52.760;6.726;2023-08-01T16:49:01;17.90;99.90
59007;DHT22;44792;52.760;6.726;2023-08-01T16:51:26;17.80;99.90
59007;DHT22;44792;52.760;6.726;2023-08-01T16:53:52;17.80;99.90
59007;DHT22;44792;52.760;6.726;2023-08-01T16:56:18;17.80;99.90
59007;DHT22;44792;52.760;6.726;2023-08-01T16:58:43;17.80;99.90
59007;DHT22;44792;52.760;6.726;2023-08-01T17:01:09;17.80;99.90
59007;DHT22;44792;52.760;6.726;2023-08-01T17:03:35;17.80;99.90
59007;DHT22;44792;52.760;6.726;2023-08-01T17:06:03;17.80;99.90
59007;DHT22;44792;52.760;6.726;2023-08-01T17:08:29;17.80;99.90
59007;DHT22;44792;52.760;6.726;2023-08-01T17:10:55;17.80;99.90
59007;DHT22;44792;52.760;6.726;2023-08-01T17:13:22;17.80;99.90
59007;DHT22;44792;52.760;6.726;2023-08-01T17:15:48;17.80;99.90
59007;DHT22;44792;52.760;6.726;2023-08-01T17:18:14;17.90;99.90
59007;DHT22;44792;52.760;6.726;2023-08-01T17:20:41;17.90;99.90
59007;DHT22;44792;52.760;6.726;2023-08-01T17:23:07;17.90;99.90
59007;DHT22;44792;52.760;6.726;2023-08-01T17:25:33;17.90;99.90